Station: Orange Airport  

  Atmospheric Gas Attenuation - ITU Rec 676-11   ----------------- dB/100km -----------------
Date Time Temp RH % AH g/m3 Dew Point Wind Direction Speed kph Gust kph Barometer mB Rainfall Since 9am 24GHz 47GHz 76GHz 122GHz 134GHz 241GHz
08/05 12:30 6.3 95 7.04 5.6 20 26 1022.2 0 16.6 25.8 37.4 97.9 87.0 297.4
08/05 12:20 6 96 6.97 5.4 24 26 1022.3 0 16.4 25.8 37.3 97.5 86.4 295.1
08/05 12:10 5.9 97 7 5.5 20 24 1022.3 0 16.5 25.9 37.5 98.0 86.9 297.0
08/05 12:00 5.6 98 6.93 5.3 24 32 1022.5 0 16.4 25.9 37.3 97.6 86.3 294.7
08/05 11:50 5.7 96 6.84 5.1 26 28 1022.6 0 16.2 25.7 36.9 96.5 84.9 290.0
08/05 11:40 5.8 96 6.88 5.2 24 26 1022.8 0 16.3 25.7 37.0 96.8 85.4 291.6
08/05 11:30 6.4 99 7.38 6.3 20 28 1022.7 0 17.3 26.4 38.9 101.7 91.7 313.7
08/05 11:20 6 99 7.19 5.9 19 22 1022.6 0 16.9 26.2 38.2 100.1 89.5 306.0
08/05 11:10 5.5 99 6.96 5.4 20 22 1022.9 0 16.4 26.0 37.5 98.1 86.8 296.7
08/05 11:00 5.3 99 6.87 5.2 22 33 1023.1 0 16.3 25.9 37.2 97.4 85.8 293.1
08/05 10:50 5.3 99 6.87 5.2 20 24 1023.3 0 16.3 25.9 37.2 97.4 85.8 293.1
08/05 10:40 5.2 99 6.82 5.1 17 20 1023.3 0 16.1 25.8 37.1 96.9 85.2 291.0
08/05 10:30 4.9 99 6.69 4.8 22 32 1023.3 0 15.9 25.7 36.7 95.8 83.7 285.8
08/05 10:20 4.7 99 6.6 4.6 24 32 1023.2 0 15.7 25.6 36.4 95.1 82.7 282.1
08/05 10:10 4.9 98 6.62 4.6 26 32 1023.1 0 15.7 25.6 36.4 95.0 82.8 282.3
08/05 10:00 5.2 97 6.68 4.8 19 26 1023.2 0 15.8 25.6 36.5 95.4 83.3 284.2
08/05 09:50 5.1 96 6.57 4.5 22 26 1023 0 15.6 25.4 36.1 94.2 81.8 279.1
08/05 09:40 5.1 98 6.71 4.8 22 30 1022.9 0 15.9 25.7 36.6 95.8 83.8 285.9
08/05 09:30 4.8 99 6.64 4.7 24 33 1022.7 0 15.8 25.6 36.5 95.3 83.1 283.6
08/05 09:20 4.3 99 6.43 4.2 24 28 1022.9 0 15.3 25.4 35.8 93.6 80.7 275.2
08/05 09:10 4.4 99 6.47 4.3 22 30 1022.9 0 15.4 25.4 36.0 93.9 81.2 276.8
08/05 09:00 4.2 99 6.38 4.1 26 35 1022.6 0 15.2 25.3 35.6 93.1 80.1 273.0
08/05 08:50 4.3 97 6.3 3.9 19 20 1022.5 0 15.1 25.2 35.3 92.1 78.9 268.7
08/05 08:40 4.1 96 6.15 3.5 26 32 1022.5 0 14.7 25.0 34.7 90.7 77.0 262.1
08/05 08:30 4.1 95 6.09 3.4 28 35 1022.4 0 14.6 24.9 34.5 90.0 76.2 259.2
08/05 08:20 4.1 94 6.02 3.2 33 39 1022.3 0 14.5 24.8 34.2 89.2 75.2 255.8
08/05 08:10 4 95 6.05 3.3 26 32 1022.2 0 14.5 24.8 34.3 89.6 75.7 257.6
08/05 08:00 3.7 96 5.99 3.1 22 30 1022 0 14.4 24.8 34.2 89.3 75.2 255.6
08/05 07:50 3.6 96 5.95 3 22 26 1022.2 0 14.3 24.8 34.1 89.0 74.7 254.1
08/05 07:40 3.6 94 5.82 2.7 24 30 1022.1 0 14.1 24.5 33.5 87.5 72.9 247.8
08/05 07:30 3.6 92 5.7 2.4 22 32 1021.9 0 13.8 24.3 33.0 86.2 71.3 242.0
08/05 07:20 3.5 92 5.66 2.3 17 24 1021.9 0 13.7 24.3 32.9 85.8 70.8 240.4
08/05 07:10 3.4 92 5.62 2.2 22 24 1021.7 0 13.6 24.3 32.8 85.5 70.4 238.7
08/05 07:00 3.4 90 5.5 1.9 24 35 1021.6 0 13.4 24.1 32.3 84.2 68.7 233.0
08/05 06:50 3.3 90 5.47 1.8 26 33 1021.5 0 13.3 24.0 32.2 83.9 68.4 231.9
08/05 06:40 3.1 90 5.39 1.6 20 22 1021.5 0 13.1 23.9 32.0 83.3 67.5 228.6
08/05 06:30 2.9 90 5.32 1.4 20 26 1021.4 0 13.0 23.9 31.7 82.7 66.7 225.9
08/05 06:20 3 89 5.3 1.4 20 24 1021.4 0 13.0 23.8 31.6 82.4 66.4 224.6
08/05 06:10 3.1 89 5.33 1.5 19 22 1021.4 0 13.0 23.8 31.7 82.6 66.7 225.8
08/05 06:00 3.1 88 5.27 1.3 22 30 1021.3 0 12.9 23.7 31.5 81.9 65.9 222.9
08/05 05:50 3.3 88 5.34 1.5 19 22 1021.4 0 13.0 23.8 31.7 82.5 66.7 225.7
08/05 05:40 3.4 88 5.38 1.6 19 22 1021.3 0 13.1 23.8 31.8 82.8 67.1 227.3
08/05 05:30 3.3 89 5.4 1.7 20 32 1021.3 0 13.2 23.9 31.9 83.1 67.5 228.5
08/05 05:20 3.3 89 5.4 1.7 24 32 1021.3 0 13.2 23.9 31.9 83.1 67.5 228.5
08/05 05:10 3.2 90 5.43 1.7 20 26 1021.3 0 13.2 24.0 32.1 83.6 68.0 230.2
08/05 05:00 3.3 90 5.47 1.8 24 35 1021.3 0 13.3 24.0 32.2 83.9 68.4 231.8
08/05 04:50 3.3 90 5.47 1.8 24 32 1021.3 0 13.3 24.0 32.2 83.9 68.4 231.8
08/05 04:40 3.3 90 5.47 1.8 22 28 1021.2 0 13.3 24.0 32.2 83.9 68.4 231.8
08/05 04:30 3.2 91 5.49 1.9 26 35 1021.2 0 13.4 24.1 32.3 84.2 68.8 233.0
08/05 04:20 3 92 5.48 1.8 22 24 1021.1 0 13.3 24.1 32.3 84.3 68.8 233.1
08/05 04:10 2.9 92 5.44 1.7 22 26 1021.1 0 13.3 24.1 32.2 84.0 68.3 231.5
08/05 04:00 2.9 92 5.44 1.7 24 35 1020.9 0 13.3 24.1 32.2 84.0 68.3 231.5
08/05 03:50 2.8 93 5.46 1.8 22 26 1021 0 13.3 24.1 32.3 84.3 68.7 232.8
08/05 03:40 2.8 93 5.46 1.8 22 28 1021.2 0 13.3 24.1 32.3 84.3 68.7 232.8
08/05 03:30 2.7 93 5.42 1.7 24 33 1021.3 0 13.2 24.1 32.2 84.0 68.3 231.2
08/05 03:20 2.7 93 5.42 1.7 22 26 1021.3 0 13.2 24.1 32.2 84.0 68.3 231.2
08/05 03:10 2.7 93 5.42 1.7 24 32 1021.2 0 13.2 24.1 32.2 84.0 68.3 231.2
08/05 03:00 2.7 93 5.42 1.7 28 37 1021.2 0 13.2 24.1 32.2 84.0 68.3 231.2
08/05 02:50 2.8 93 5.46 1.8 28 32 1021.2 0 13.3 24.1 32.3 84.3 68.7 232.8
08/05 02:40 2.8 92 5.4 1.6 28 35 1021.3 0 13.2 24.0 32.1 83.7 67.9 230.0
08/05 02:30 2.7 92 5.37 1.5 28 37 1021.2 0 13.1 24.0 32.0 83.4 67.6 228.8
08/05 02:20 2.7 91 5.31 1.4 24 35 1021.2 0 13.0 23.9 31.8 82.8 66.8 225.9
08/05 02:10 2.7 91 5.31 1.4 28 35 1021.3 0 13.0 23.9 31.8 82.8 66.8 226.0
08/05 02:00 2.7 91 5.31 1.4 24 35 1021.6 0 13.0 23.9 31.8 82.8 66.8 226.0
08/05 01:50 2.6 90 5.21 1.1 33 39 1021.6 0 12.8 23.8 31.4 81.8 65.5 221.5
08/05 01:40 2.4 90 5.14 0.9 26 32 1021.6 0 12.6 23.7 31.2 81.3 64.7 218.8
08/05 01:30 2.4 89 5.09 0.8 26 35 1021.6 0 12.5 23.6 31.0 80.7 64.1 216.4
08/05 01:20 2.4 88 5.03 0.6 26 32 1021.6 0 12.4 23.5 30.8 80.1 63.3 213.6
08/05 01:10 2.4 88 5.03 0.6 22 28 1021.7 0 12.4 23.5 30.8 80.1 63.3 213.6
08/05 01:00 2.4 88 5.03 0.6 28 37 1021.8 0 12.4 23.6 30.8 80.1 63.3 213.6
08/05 00:50 2.3 88 5 0.5 26 30 1022 0 12.3 23.5 30.7 79.9 63.0 212.5
08/05 00:40 2.2 88 4.96 0.4 26 35 1021.9 0 12.2 23.5 30.6 79.5 62.5 210.9
08/05 00:20 2 88 4.9 0.2 30 35 1021.7 0 12.1 23.4 30.4 79.1 61.8 208.5
08/05 00:10 1.9 87 4.81 0 28 33 1021.7 0 11.9 23.3 30.1 78.2 60.7 204.6
08/05 00:00 1.9 87 4.81 0 26 35 1021.8 0 11.9 23.3 30.1 78.2 60.7 204.6
07/05 23:50 1.8 87 4.77 -0.1 26 33 1021.9 0 11.8 23.3 29.9 77.9 60.3 203.0
07/05 23:40 1.7 87 4.74 -0.2 24 28 1022 0 11.8 23.3 29.9 77.7 59.9 201.8
07/05 23:30 1.5 88 4.73 -0.3 22 30 1021.9 0 11.8 23.3 29.9 77.7 60.0 201.9
07/05 23:20 1.6 88 4.76 -0.2 20 24 1021.9 0 11.8 23.3 30.0 78.0 60.3 203.0
07/05 23:10 1.5 87 4.68 -0.4 24 28 1021.7 0 11.7 23.2 29.7 77.2 59.3 199.5
07/05 23:00 1.6 87 4.71 -0.3 19 24 1021.9 0 11.7 23.2 29.8 77.4 59.6 200.7
07/05 22:50 1.5 86 4.62 -0.6 19 20 1022 0 11.5 23.1 29.5 76.6 58.5 196.7
07/05 22:40 1.6 86 4.66 -0.5 20 24 1022.1 0 11.6 23.2 29.6 76.9 58.9 198.3
07/05 22:30 1.7 86 4.69 -0.4 20 35 1022.2 0 11.7 23.2 29.7 77.1 59.3 199.5
07/05 22:20 1.7 85 4.63 -0.5 19 20 1022.2 0 11.6 23.1 29.4 76.5 58.5 196.7
07/05 22:10 1.7 85 4.63 -0.5 19 24 1022.1 0 11.6 23.1 29.4 76.5 58.5 196.7
07/05 22:00 1.9 84 4.64 -0.5 24 35 1021.9 0 11.6 23.0 29.4 76.4 58.4 196.6
07/05 21:50 2.1 84 4.7 -0.3 26 30 1021.9 0 11.7 23.1 29.6 76.8 59.1 198.9
07/05 21:40 1.8 84 4.61 -0.6 19 20 1021.9 0 11.5 23.0 29.3 76.2 58.1 195.5
07/05 21:30 2.2 82 4.62 -0.5 26 33 1021.8 0 11.5 22.9 29.2 75.9 58.0 194.9
07/05 21:20 2.3 82 4.66 -0.4 22 26 1021.6 0 11.6 23.0 29.3 76.2 58.4 196.5
07/05 21:10 2.4 81 4.63 -0.5 20 24 1021.7 0 11.5 22.9 29.2 75.8 57.9 194.9
07/05 21:00 2.5 81 4.66 -0.4 28 43 1021.7 0 11.6 22.9 29.2 76.0 58.2 196.0
07/05 20:50 2.6 80 4.63 -0.5 26 32 1021.6 0 11.5 22.8 29.1 75.6 57.8 194.4
07/05 20:40 2.8 80 4.7 -0.3 22 28 1021.6 0 11.7 22.9 29.3 76.1 58.5 197.1
07/05 20:30 2.7 80 4.67 -0.4 28 37 1021.5 0 11.6 22.9 29.2 75.9 58.2 196.0
07/05 20:20 2.5 81 4.66 -0.4 28 35 1021.3 0 11.6 22.9 29.2 76.0 58.2 196.0
07/05 20:10 2.5 80 4.6 -0.6 22 28 1021.4 0 11.5 22.8 29.0 75.3 57.4 193.2
07/05 20:00 2.3 80 4.54 -0.8 24 35 1021.5 0 11.3 22.8 28.8 74.9 56.8 190.9
07/05 19:50 2.5 78 4.49 -0.9 20 22 1021.5 0 11.2 22.6 28.6 74.2 56.0 188.1

Last Refresh: 08-May-2026 12:10:12

Bureau of Meteorology